Time;durP1;ratioP1;P1;durP2;ratioP2;P2;SDS_P1;SDS_P2;PMS_P1;PMS_P2;Temp;Humidity;BMP_temperature;BMP_pressure;BME280_temperature;BME280_humidity;BME280_pressure;Samples;Min_cycle;Max_cycle;Signal;HPM_P1;HPM_P2
2022/08/10 00:00:20;;;;;;;;;;;;;;;;;;2115372;28;19927;-45
2022/08/10 00:01:21;;;;;;;;;;;;;;;;;;2115457;28;20292;-45
2022/08/10 00:02:22;;;;;;;;;;;;;;;;;;2115503;28;19928;-45
2022/08/10 00:03:23;;;;;;;;;;;;;;;;;;2115400;28;19923;-44
2022/08/10 00:04:24;;;;;;;;;;;;;;;;;;2115486;28;19923;-45
2022/08/10 00:05:25;;;;;;;;;;;;;;;;;;2115495;28;20253;-45
2022/08/10 00:06:26;;;;;;;;;;;;;;;;;;2115216;28;19928;-44
2022/08/10 00:07:27;;;;;;;;;;;;;;;;;;2115398;28;20380;-44
2022/08/10 00:08:28;;;;;;;;;;;;;;;;;;2115432;28;20010;-44
2022/08/10 00:09:29;;;;;;;;;;;;;;;;;;2115499;28;19955;-44
2022/08/10 00:10:29;;;;;;;;;;;;;;;;;;2115596;28;19924;-44
2022/08/10 00:11:30;;;;;;;;;;;;;;;;;;2110468;28;19931;-45
2022/08/10 00:12:31;;;;;;;;;;;;;;;;;;2106985;28;19931;-44
2022/08/10 00:13:52;;;;;;;;;;;;;;;;;;2107011;28;19928;-44
2022/08/10 00:14:53;;;;;;;;;;;;;;;;;;2107007;28;20369;-44
2022/08/10 00:15:54;;;;;;;;;;;;;;;;;;2106990;28;19953;-43
2022/08/10 00:16:56;;;;;;;;;;;;;;;;;;2106850;28;19924;-45
2022/08/10 00:17:56;;;;;;;;;;;;;;;;;;2106817;28;20023;-43
2022/08/10 00:18:57;;;;;;;;;;;;;;;;;;2107088;28;19924;-44
2022/08/10 00:19:58;;;;;;;;;;;;;;;;;;2106949;28;20008;-44
2022/08/10 00:21:03;;;;;;;;;;;;;;;;;;2106983;28;19931;-43
2022/08/10 00:22:04;;;;;;;;;;;;;;;;;;2107138;28;19984;-45
2022/08/10 00:23:05;;;;;;;;;;;;;;;;;;2106938;28;19936;-45
2022/08/10 00:24:06;;;;;;;;;;;;;;;;;;2106837;28;19959;-43
2022/08/10 00:25:07;;;;;;;;;;;;;;;;;;2106904;28;19924;-43
2022/08/10 00:26:07;;;;;;;;;;;;;;;;;;2106873;28;19974;-44
2022/08/10 00:27:08;;;;;;;;;;;;;;;;;;2106804;28;20266;-44
2022/08/10 00:28:29;;;;;;;;;;;;;;;;;;2106835;28;19951;-43
2022/08/10 00:29:30;;;;;;;;;;;;;;;;;;2106776;28;19932;-43
2022/08/10 00:30:31;;;;;;;;;;;;;;;;;;2106773;28;20018;-44
2022/08/10 00:31:32;;;;;;;;;;;;;;;;;;2106897;28;19974;-44
2022/08/10 00:32:33;;;;;;;;;;;;;;;;;;2106841;28;19951;-43
2022/08/10 00:33:34;;;;;;;;;;;;;;;;;;2106763;28;19956;-44
2022/08/10 00:34:34;;;;;;;;;;;;;;;;;;2106274;28;19932;-44
2022/08/10 00:35:35;;;;;;;;;;;;;;;;;;2106454;28;19924;-44
2022/08/10 00:36:36;;;;;;;;;;;;;;;;;;2106818;28;19924;-44
2022/08/10 00:37:37;;;;;;;;;;;;;;;;;;2106981;28;20007;-43
2022/08/10 00:38:38;;;;;;;;;;;;;;;;;;2106986;28;20285;-44
2022/08/10 00:39:39;;;;;;;;;;;;;;;;;;2106865;28;19928;-44
2022/08/10 00:40:40;;;;;;;;;;;;;;;;;;2106927;28;19947;-43
2022/08/10 00:41:41;;;;;;;;;;;;;;;;;;2106966;28;19995;-44
2022/08/10 00:42:41;;;;;;;;;;;;;;;;;;2106662;28;20020;-43
2022/08/10 00:43:42;;;;;;;;;;;;;;;;;;2106758;28;19928;-43
2022/08/10 00:44:43;;;;;;;;;;;;;;;;;;2106767;28;19954;-44
2022/08/10 00:45:44;;;;;;;;;;;;;;;;;;2106643;28;20415;-43
2022/08/10 00:46:45;;;;;;;;;;;;;;;;;;2106649;28;19927;-45
2022/08/10 00:47:46;;;;;;;;;;;;;;;;;;2106688;28;19998;-43
2022/08/10 00:48:47;;;;;;;;;;;;;;;;;;2106783;28;19977;-43
2022/08/10 00:50:00;;;;;;;;;;;;;;;;;;2106721;28;20391;-43
2022/08/10 00:51:01;;;;;;;;;;;;;;;;;;2106711;28;19967;-43
2022/08/10 00:52:02;;;;;;;;;;;;;;;;;;2106795;28;19928;-43
2022/08/10 00:53:03;;;;;;;;;;;;;;;;;;2106843;28;19934;-43
2022/08/10 00:54:05;;;;;;;;;;;;;;;;;;2112998;28;20308;-43
2022/08/10 00:55:06;;;;;;;;;;;;;;;;;;2115125;28;19970;-43
2022/08/10 00:56:07;;;;;;;;;;;;;;;;;;2114877;28;20576;-44
2022/08/10 00:57:28;;;;;;;;;;;;;;;;;;2115164;28;19923;-44
2022/08/10 00:58:28;;;;;;;;;;;;;;;;;;2115027;28;20396;-44
2022/08/10 00:59:29;;;;;;;;;;;;;;;;;;2115356;28;20018;-44
2022/08/10 01:00:30;;;;;;;;;;;;;;;;;;2115110;28;19923;-44
2022/08/10 01:01:31;;;;;;;;;;;;;;;;;;2114971;28;20424;-45
2022/08/10 01:02:52;;;;;;;;;;;;;;;;;;2115011;28;19927;-43
2022/08/10 01:03:53;;;;;;;;;;;;;;;;;;2115076;28;19969;-42
2022/08/10 01:05:14;;;;;;;;;;;;;;;;;;2115101;28;19935;-43
2022/08/10 01:06:15;;;;;;;;;;;;;;;;;;2115067;28;19935;-43
2022/08/10 01:07:16;;;;;;;;;;;;;;;;;;2114897;28;19931;-44
2022/08/10 01:08:16;;;;;;;;;;;;;;;;;;2115131;28;19980;-44
2022/08/10 01:09:17;;;;;;;;;;;;;;;;;;2114996;28;19952;-44
2022/08/10 01:10:18;;;;;;;;;;;;;;;;;;2115037;28;19924;-43
2022/08/10 01:11:19;;;;;;;;;;;;;;;;;;2111592;28;19973;-43
2022/08/10 01:12:40;;;;;;;;;;;;;;;;;;2106651;28;19924;-42
2022/08/10 01:13:42;;;;;;;;;;;;;;;;;;2106723;28;19963;-45
2022/08/10 01:14:42;;;;;;;;;;;;;;;;;;2106540;28;19974;-43
2022/08/10 01:15:43;;;;;;;;;;;;;;;;;;2106790;28;19924;-44
2022/08/10 01:16:44;;;;;;;;;;;;;;;;;;2106226;28;19924;-43
2022/08/10 01:17:45;;;;;;;;;;;;;;;;;;2106655;28;20434;-47
2022/08/10 01:18:51;;;;;;;;;;;;;;;;;;2106503;28;19924;-43
2022/08/10 01:19:52;;;;;;;;;;;;;;;;;;2106599;28;19943;-44
2022/08/10 01:20:52;;;;;;;;;;;;;;;;;;2106603;28;19928;-43
2022/08/10 01:21:53;;;;;;;;;;;;;;;;;;2106422;28;19977;-43
2022/08/10 01:22:57;;;;;;;;;;;;;;;;;;2106379;28;20031;-44
2022/08/10 01:23:58;;;;;;;;;;;;;;;;;;2106513;28;20377;-43
2022/08/10 01:24:59;;;;;;;;;;;;;;;;;;2106596;28;19964;-44
2022/08/10 01:26:00;;;;;;;;;;;;;;;;;;2106621;28;19924;-42
2022/08/10 01:27:11;;;;;;;;;;;;;;;;;;2106587;28;19924;-44
2022/08/10 01:28:12;;;;;;;;;;;;;;;;;;2106402;28;19927;-43
2022/08/10 01:29:13;;;;;;;;;;;;;;;;;;2106546;28;19924;-43
2022/08/10 01:30:14;;;;;;;;;;;;;;;;;;2106487;28;19932;-46
2022/08/10 01:31:15;;;;;;;;;;;;;;;;;;2106500;28;19977;-45
2022/08/10 01:32:16;;;;;;;;;;;;;;;;;;2106370;28;20030;-43
2022/08/10 01:33:17;;;;;;;;;;;;;;;;;;2106436;28;20019;-43
2022/08/10 01:34:18;;;;;;;;;;;;;;;;;;2106360;28;20003;-42
2022/08/10 01:35:18;;;;;;;;;;;;;;;;;;2106519;28;20014;-42
2022/08/10 01:36:20;;;;;;;;;;;;;;;;;;2106304;28;20022;-42
2022/08/10 01:37:21;;;;;;;;;;;;;;;;;;2097505;28;20014;-46
2022/08/10 01:38:22;;;;;;;;;;;;;;;;;;2097684;28;20018;-43
2022/08/10 01:39:23;;;;;;;;;;;;;;;;;;2106503;28;19993;-43
2022/08/10 01:40:24;;;;;;;;;;;;;;;;;;2106502;28;19924;-43
2022/08/10 01:41:25;;;;;;;;;;;;;;;;;;2106255;28;19924;-43
2022/08/10 01:42:26;;;;;;;;;;;;;;;;;;2106420;28;19924;-43
2022/08/10 01:43:27;;;;;;;;;;;;;;;;;;2106306;28;19932;-46
2022/08/10 01:44:28;;;;;;;;;;;;;;;;;;2106373;28;19924;-43
2022/08/10 01:45:28;;;;;;;;;;;;;;;;;;2106437;28;19925;-45
2022/08/10 01:46:29;;;;;;;;;;;;;;;;;;2106015;28;20366;-46
2022/08/10 01:48:49;;;;;;;;;;;;;;;;;;2106467;28;20007;-42
2022/08/10 01:49:50;;;;;;;;;;;;;;;;;;2108584;28;19930;-44
2022/08/10 01:50:51;;;;;;;;;;;;;;;;;;2114914;28;19930;-43
2022/08/10 01:51:56;;;;;;;;;;;;;;;;;;2106205;28;20011;-44
2022/08/10 01:53:01;;;;;;;;;;;;;;;;;;2106297;28;20335;-43
2022/08/10 01:54:02;;;;;;;;;;;;;;;;;;2106419;28;20015;-45
2022/08/10 01:55:03;;;;;;;;;;;;;;;;;;2106289;28;20042;-43
2022/08/10 01:56:03;;;;;;;;;;;;;;;;;;2106127;28;20399;-43
2022/08/10 01:57:04;;;;;;;;;;;;;;;;;;2106281;28;19958;-43
2022/08/10 01:58:05;;;;;;;;;;;;;;;;;;2106267;28;19924;-43
2022/08/10 01:59:06;;;;;;;;;;;;;;;;;;2106192;28;19935;-45
2022/08/10 02:00:07;;;;;;;;;;;;;;;;;;2106349;28;20010;-44
2022/08/10 02:01:08;;;;;;;;;;;;;;;;;;2106119;28;19956;-43
2022/08/10 02:02:09;;;;;;;;;;;;;;;;;;2106134;28;19924;-43
2022/08/10 02:03:10;;;;;;;;;;;;;;;;;;2106407;28;19978;-44
2022/08/10 02:04:10;;;;;;;;;;;;;;;;;;2106383;28;20014;-46
2022/08/10 02:05:11;;;;;;;;;;;;;;;;;;2106095;28;20328;-43
2022/08/10 02:06:12;;;;;;;;;;;;;;;;;;2106138;28;20018;-44
2022/08/10 02:07:13;;;;;;;;;;;;;;;;;;2106253;28;19932;-44
2022/08/10 02:08:14;;;;;;;;;;;;;;;;;;2106102;28;19978;-45
2022/08/10 02:09:15;;;;;;;;;;;;;;;;;;2106217;28;20061;-44
2022/08/10 02:10:17;;;;;;;;;;;;;;;;;;2106248;28;19989;-44
2022/08/10 02:11:18;;;;;;;;;;;;;;;;;;2108885;28;20018;-44
2022/08/10 02:12:19;;;;;;;;;;;;;;;;;;2114738;28;19923;-42
2022/08/10 02:13:20;;;;;;;;;;;;;;;;;;2114737;28;19962;-43
2022/08/10 02:14:21;;;;;;;;;;;;;;;;;;2114589;28;20006;-43
2022/08/10 02:15:22;;;;;;;;;;;;;;;;;;2114746;28;19988;-44
2022/08/10 02:16:23;;;;;;;;;;;;;;;;;;2114454;28;20015;-43
2022/08/10 02:17:24;;;;;;;;;;;;;;;;;;2114441;28;19958;-45
2022/08/10 02:18:45;;;;;;;;;;;;;;;;;;2114782;28;20296;-44
2022/08/10 02:19:46;;;;;;;;;;;;;;;;;;2114609;28;20184;-45
2022/08/10 02:20:47;;;;;;;;;;;;;;;;;;2114922;28;19980;-44
2022/08/10 02:21:47;;;;;;;;;;;;;;;;;;2114611;28;19924;-44
2022/08/10 02:23:08;;;;;;;;;;;;;;;;;;2114572;28;19924;-45
2022/08/10 02:24:12;;;;;;;;;;;;;;;;;;2114584;28;19927;-44
2022/08/10 02:25:13;;;;;;;;;;;;;;;;;;2114554;28;20034;-44
2022/08/10 02:26:34;;;;;;;;;;;;;;;;;;2114572;28;19934;-44
2022/08/10 02:27:35;;;;;;;;;;;;;;;;;;2115077;28;20010;-44
2022/08/10 02:28:36;;;;;;;;;;;;;;;;;;2114556;28;20272;-45
2022/08/10 02:29:36;;;;;;;;;;;;;;;;;;2114480;28;19984;-45
2022/08/10 02:30:37;;;;;;;;;;;;;;;;;;2114442;28;19930;-45
2022/08/10 02:31:38;;;;;;;;;;;;;;;;;;2114577;28;19973;-44
2022/08/10 02:32:39;;;;;;;;;;;;;;;;;;2114534;28;19932;-44
2022/08/10 02:33:40;;;;;;;;;;;;;;;;;;2114520;28;20331;-46
2022/08/10 02:34:57;;;;;;;;;;;;;;;;;;2114531;28;19972;-44
2022/08/10 02:35:58;;;;;;;;;;;;;;;;;;2114402;28;20384;-46
2022/08/10 02:36:58;;;;;;;;;;;;;;;;;;2114330;28;20390;-44
2022/08/10 02:37:59;;;;;;;;;;;;;;;;;;2114700;28;19924;-44
2022/08/10 02:39:00;;;;;;;;;;;;;;;;;;2114792;28;19924;-45
2022/08/10 02:40:02;;;;;;;;;;;;;;;;;;2114409;28;19924;-46
2022/08/10 02:41:02;;;;;;;;;;;;;;;;;;2114638;28;20015;-45
2022/08/10 02:42:23;;;;;;;;;;;;;;;;;;2114555;28;19939;-46
2022/08/10 02:43:44;;;;;;;;;;;;;;;;;;2114541;28;19924;-43
2022/08/10 02:45:05;;;;;;;;;;;;;;;;;;2114428;28;20441;-44
2022/08/10 02:46:25;;;;;;;;;;;;;;;;;;2114104;28;19924;-45
2022/08/10 02:47:26;;;;;;;;;;;;;;;;;;2114195;28;20398;-44
2022/08/10 02:48:27;;;;;;;;;;;;;;;;;;2114408;28;20121;-43
2022/08/10 02:49:28;;;;;;;;;;;;;;;;;;2114450;28;20443;-44
2022/08/10 02:50:29;;;;;;;;;;;;;;;;;;2114268;28;19924;-43
2022/08/10 02:51:30;;;;;;;;;;;;;;;;;;2114450;28;20023;-43
2022/08/10 02:52:51;;;;;;;;;;;;;;;;;;2114448;28;19931;-43
2022/08/10 02:53:52;;;;;;;;;;;;;;;;;;2114537;28;20010;-43
2022/08/10 02:54:56;;;;;;;;;;;;;;;;;;2114566;28;19924;-44
2022/08/10 02:55:58;;;;;;;;;;;;;;;;;;2114481;28;19924;-45
2022/08/10 02:56:58;;;;;;;;;;;;;;;;;;2114445;28;20334;-43
2022/08/10 02:57:59;;;;;;;;;;;;;;;;;;2114476;28;19928;-46
2022/08/10 02:59:13;;;;;;;;;;;;;;;;;;2115852;28;20294;-44
2022/08/10 03:00:14;;;;;;;;;;;;;;;;;;2115798;28;19934;-44
2022/08/10 03:01:14;;;;;;;;;;;;;;;;;;2115800;28;20436;-43
2022/08/10 03:02:15;;;;;;;;;;;;;;;;;;2115995;28;19977;-45
2022/08/10 03:03:16;;;;;;;;;;;;;;;;;;2115972;28;19984;-44
2022/08/10 03:04:17;;;;;;;;;;;;;;;;;;2115881;28;20377;-45
2022/08/10 03:05:19;;;;;;;;;;;;;;;;;;2115930;28;20011;-46
2022/08/10 03:06:20;;;;;;;;;;;;;;;;;;2115649;28;20363;-47
2022/08/10 03:07:20;;;;;;;;;;;;;;;;;;2116064;28;20018;-46
2022/08/10 03:08:41;;;;;;;;;;;;;;;;;;2115810;28;20345;-43
2022/08/10 03:09:42;;;;;;;;;;;;;;;;;;2115967;28;20015;-43
2022/08/10 03:10:43;;;;;;;;;;;;;;;;;;2115820;28;20369;-44
2022/08/10 03:11:44;;;;;;;;;;;;;;;;;;2108742;28;20484;-47
2022/08/10 03:13:05;;;;;;;;;;;;;;;;;;2107636;28;20150;-44
2022/08/10 03:14:06;;;;;;;;;;;;;;;;;;2107279;28;20035;-43
2022/08/10 03:15:07;;;;;;;;;;;;;;;;;;2107216;28;20010;-45
2022/08/10 03:16:07;;;;;;;;;;;;;;;;;;2107283;28;20065;-43
2022/08/10 03:17:08;;;;;;;;;;;;;;;;;;2107221;28;19969;-44
2022/08/10 03:18:09;;;;;;;;;;;;;;;;;;2107184;28;20449;-44
2022/08/10 03:19:10;;;;;;;;;;;;;;;;;;2107304;28;19931;-43
2022/08/10 03:20:31;;;;;;;;;;;;;;;;;;2107327;28;19924;-44
2022/08/10 03:21:39;;;;;;;;;;;;;;;;;;2107182;28;19964;-44
2022/08/10 03:22:39;;;;;;;;;;;;;;;;;;2107281;28;19931;-42
2022/08/10 03:23:40;;;;;;;;;;;;;;;;;;2107342;28;19928;-44
2022/08/10 03:24:41;;;;;;;;;;;;;;;;;;2107175;28;19974;-44
2022/08/10 03:25:42;;;;;;;;;;;;;;;;;;2107284;28;19924;-43
2022/08/10 03:26:54;;;;;;;;;;;;;;;;;;2107117;28;19955;-44
2022/08/10 03:27:55;;;;;;;;;;;;;;;;;;2107262;28;19931;-43
2022/08/10 03:28:56;;;;;;;;;;;;;;;;;;2107467;28;20015;-44
2022/08/10 03:29:59;;;;;;;;;;;;;;;;;;2107232;28;19924;-44
2022/08/10 03:31:20;;;;;;;;;;;;;;;;;;2107302;28;19924;-44
2022/08/10 03:32:22;;;;;;;;;;;;;;;;;;2107241;28;19934;-43
2022/08/10 03:33:24;;;;;;;;;;;;;;;;;;2107210;28;20057;-44
2022/08/10 03:34:25;;;;;;;;;;;;;;;;;;2107208;28;20430;-43
2022/08/10 03:35:33;;;;;;;;;;;;;;;;;;2107287;28;19933;-43
2022/08/10 03:36:34;;;;;;;;;;;;;;;;;;2107090;28;20280;-44
2022/08/10 03:37:41;;;;;;;;;;;;;;;;;;2107362;28;19966;-44
2022/08/10 03:38:44;;;;;;;;;;;;;;;;;;2107141;28;20494;-45
2022/08/10 03:39:45;;;;;;;;;;;;;;;;;;2107097;28;19928;-44
2022/08/10 03:40:46;;;;;;;;;;;;;;;;;;2107202;28;19947;-44
2022/08/10 03:41:47;;;;;;;;;;;;;;;;;;2107183;28;19971;-44
2022/08/10 03:42:53;;;;;;;;;;;;;;;;;;2114007;28;19988;-44
2022/08/10 03:43:54;;;;;;;;;;;;;;;;;;2115807;28;19924;-44
2022/08/10 03:44:55;;;;;;;;;;;;;;;;;;2115562;28;20016;-43
2022/08/10 03:45:56;;;;;;;;;;;;;;;;;;2115914;28;20381;-44
2022/08/10 03:46:57;;;;;;;;;;;;;;;;;;2115570;28;19930;-44
2022/08/10 03:47:58;;;;;;;;;;;;;;;;;;2115548;28;19931;-44
2022/08/10 03:48:58;;;;;;;;;;;;;;;;;;2115536;28;19924;-43
2022/08/10 03:49:59;;;;;;;;;;;;;;;;;;2115540;28;20389;-43
2022/08/10 03:51:03;;;;;;;;;;;;;;;;;;2115570;28;19924;-44
2022/08/10 03:52:05;;;;;;;;;;;;;;;;;;2115867;28;20315;-44
2022/08/10 03:53:06;;;;;;;;;;;;;;;;;;2115611;28;20006;-44
2022/08/10 03:54:07;;;;;;;;;;;;;;;;;;2115514;28;19959;-43
2022/08/10 03:55:08;;;;;;;;;;;;;;;;;;2115622;28;20022;-45
2022/08/10 03:56:09;;;;;;;;;;;;;;;;;;2115411;28;20335;-43
2022/08/10 03:57:29;;;;;;;;;;;;;;;;;;2115580;28;19923;-43
2022/08/10 03:58:29;;;;;;;;;;;;;;;;;;2115505;28;20440;-44
2022/08/10 03:59:30;;;;;;;;;;;;;;;;;;2115592;28;19924;-42
2022/08/10 04:00:33;;;;;;;;;;;;;;;;;;2115532;28;20011;-44
2022/08/10 04:01:34;;;;;;;;;;;;;;;;;;2115974;28;20244;-42
2022/08/10 04:02:56;;;;;;;;;;;;;;;;;;2115407;28;19924;-43
2022/08/10 04:03:57;;;;;;;;;;;;;;;;;;2115535;28;19924;-44
2022/08/10 04:05:12;;;;;;;;;;;;;;;;;;2115401;28;19930;-44
2022/08/10 04:06:13;;;;;;;;;;;;;;;;;;2115467;28;20010;-44
2022/08/10 04:07:14;;;;;;;;;;;;;;;;;;2115262;28;20313;-44
2022/08/10 04:08:14;;;;;;;;;;;;;;;;;;2115369;28;20456;-44
2022/08/10 04:09:15;;;;;;;;;;;;;;;;;;2115621;28;19931;-43
2022/08/10 04:10:16;;;;;;;;;;;;;;;;;;2115555;28;20352;-43
2022/08/10 04:11:17;;;;;;;;;;;;;;;;;;2112312;28;19923;-43
2022/08/10 04:12:18;;;;;;;;;;;;;;;;;;2106898;28;19924;-44
2022/08/10 04:13:19;;;;;;;;;;;;;;;;;;2107145;28;20335;-45
2022/08/10 04:14:19;;;;;;;;;;;;;;;;;;2106928;28;19993;-44
2022/08/10 04:15:38;;;;;;;;;;;;;;;;;;2107154;28;19924;-44
2022/08/10 04:16:39;;;;;;;;;;;;;;;;;;2106689;28;19924;-46
2022/08/10 04:17:40;;;;;;;;;;;;;;;;;;2107138;28;19931;-44
2022/08/10 04:19:00;;;;;;;;;;;;;;;;;;2107210;28;19946;-43
2022/08/10 04:20:02;;;;;;;;;;;;;;;;;;2107125;28;19924;-43
2022/08/10 04:21:03;;;;;;;;;;;;;;;;;;2106802;28;20300;-43
2022/08/10 04:22:04;;;;;;;;;;;;;;;;;;2106947;28;19959;-44
2022/08/10 04:23:05;;;;;;;;;;;;;;;;;;2106870;28;19955;-43
2022/08/10 04:24:06;;;;;;;;;;;;;;;;;;2106856;28;20297;-43
2022/08/10 04:25:07;;;;;;;;;;;;;;;;;;2107020;28;19973;-44
2022/08/10 04:26:07;;;;;;;;;;;;;;;;;;2106977;28;19924;-44
2022/08/10 04:27:08;;;;;;;;;;;;;;;;;;2107098;28;19947;-43
2022/08/10 04:28:09;;;;;;;;;;;;;;;;;;2106841;28;19924;-44
2022/08/10 04:29:10;;;;;;;;;;;;;;;;;;2107047;28;20007;-43
2022/08/10 04:30:11;;;;;;;;;;;;;;;;;;2106812;28;19925;-43
2022/08/10 04:31:12;;;;;;;;;;;;;;;;;;2106719;28;20027;-43
2022/08/10 04:32:12;;;;;;;;;;;;;;;;;;2106867;28;19993;-43
2022/08/10 04:33:13;;;;;;;;;;;;;;;;;;2107066;28;19963;-43
2022/08/10 04:34:14;;;;;;;;;;;;;;;;;;2106952;28;19944;-44
2022/08/10 04:35:16;;;;;;;;;;;;;;;;;;2106864;28;19928;-43
2022/08/10 04:36:16;;;;;;;;;;;;;;;;;;2106753;28;19959;-43
2022/08/10 04:37:17;;;;;;;;;;;;;;;;;;2106800;28;19924;-45
2022/08/10 04:38:18;;;;;;;;;;;;;;;;;;2106695;28;19931;-44
2022/08/10 04:39:20;;;;;;;;;;;;;;;;;;2115440;28;19923;-44
2022/08/10 04:40:21;;;;;;;;;;;;;;;;;;2115280;28;19924;-44
2022/08/10 04:41:29;;;;;;;;;;;;;;;;;;2115327;28;19928;-44
2022/08/10 04:42:30;;;;;;;;;;;;;;;;;;2115425;28;20342;-44
2022/08/10 04:43:31;;;;;;;;;;;;;;;;;;2115425;28;19950;-44
2022/08/10 04:44:31;;;;;;;;;;;;;;;;;;2115206;28;19928;-44
2022/08/10 04:45:33;;;;;;;;;;;;;;;;;;2115304;28;19955;-43
2022/08/10 04:46:50;;;;;;;;;;;;;;;;;;2115110;28;19931;-45
2022/08/10 04:47:58;;;;;;;;;;;;;;;;;;2115086;28;19927;-45
2022/08/10 04:49:04;;;;;;;;;;;;;;;;;;2115407;28;19927;-43
2022/08/10 04:50:05;;;;;;;;;;;;;;;;;;2115258;28;19924;-45
2022/08/10 04:51:06;;;;;;;;;;;;;;;;;;2115549;28;19992;-43
2022/08/10 04:52:07;;;;;;;;;;;;;;;;;;2115275;28;19935;-45
2022/08/10 04:53:08;;;;;;;;;;;;;;;;;;2115305;28;20403;-44
2022/08/10 04:54:09;;;;;;;;;;;;;;;;;;2115067;28;20444;-44
2022/08/10 04:55:14;;;;;;;;;;;;;;;;;;2115381;28;19942;-44
2022/08/10 04:56:15;;;;;;;;;;;;;;;;;;2115132;28;20054;-43
2022/08/10 04:57:16;;;;;;;;;;;;;;;;;;2115025;28;19967;-45
2022/08/10 04:58:17;;;;;;;;;;;;;;;;;;2115275;28;20007;-43
2022/08/10 04:59:18;;;;;;;;;;;;;;;;;;2115128;28;19946;-44
2022/08/10 05:00:18;;;;;;;;;;;;;;;;;;2115225;28;20319;-43
2022/08/10 05:01:19;;;;;;;;;;;;;;;;;;2115288;28;19969;-45
2022/08/10 05:02:25;;;;;;;;;;;;;;;;;;2115052;28;19963;-45
2022/08/10 05:03:32;;;;;;;;;;;;;;;;;;2115040;28;20344;-46
2022/08/10 05:04:32;;;;;;;;;;;;;;;;;;2115157;28;19928;-46
2022/08/10 05:05:39;;;;;;;;;;;;;;;;;;2114995;28;20060;-46
2022/08/10 05:06:39;;;;;;;;;;;;;;;;;;2115117;28;19923;-45
2022/08/10 05:07:40;;;;;;;;;;;;;;;;;;2114932;28;20349;-45
2022/08/10 05:08:54;;;;;;;;;;;;;;;;;;2115196;28;20331;-45
2022/08/10 05:09:55;;;;;;;;;;;;;;;;;;2114976;28;20006;-45
2022/08/10 05:11:03;;;;;;;;;;;;;;;;;;2114102;28;19928;-44
2022/08/10 05:12:04;;;;;;;;;;;;;;;;;;2106512;28;19981;-45
2022/08/10 05:13:05;;;;;;;;;;;;;;;;;;2106544;28;20292;-44
2022/08/10 05:14:06;;;;;;;;;;;;;;;;;;2106574;28;19924;-44
2022/08/10 05:15:07;;;;;;;;;;;;;;;;;;2106478;28;19924;-45
2022/08/10 05:16:08;;;;;;;;;;;;;;;;;;2106779;28;19928;-43
2022/08/10 05:17:08;;;;;;;;;;;;;;;;;;2106407;28;20030;-45
2022/08/10 05:18:09;;;;;;;;;;;;;;;;;;2106602;28;19924;-44
2022/08/10 05:19:11;;;;;;;;;;;;;;;;;;2106597;28;19942;-45
2022/08/10 05:20:12;;;;;;;;;;;;;;;;;;2106470;28;20448;-44
2022/08/10 05:21:13;;;;;;;;;;;;;;;;;;2105927;28;20007;-43
2022/08/10 05:22:34;;;;;;;;;;;;;;;;;;2106650;28;19931;-45
2022/08/10 05:23:35;;;;;;;;;;;;;;;;;;2106354;28;20411;-44
2022/08/10 05:24:36;;;;;;;;;;;;;;;;;;2106499;28;19924;-44
2022/08/10 05:25:37;;;;;;;;;;;;;;;;;;2106628;28;19924;-44
2022/08/10 05:26:38;;;;;;;;;;;;;;;;;;2106459;28;19924;-44
2022/08/10 05:27:55;;;;;;;;;;;;;;;;;;2106592;28;19931;-44
2022/08/10 05:28:57;;;;;;;;;;;;;;;;;;2106814;28;19924;-44
2022/08/10 05:29:59;;;;;;;;;;;;;;;;;;2106482;28;19928;-44
2022/08/10 05:31:03;;;;;;;;;;;;;;;;;;2106550;28;20135;-45
2022/08/10 05:32:03;;;;;;;;;;;;;;;;;;2106430;28;20353;-44
2022/08/10 05:33:04;;;;;;;;;;;;;;;;;;2106453;28;19974;-47
2022/08/10 05:34:09;;;;;;;;;;;;;;;;;;2106449;28;19924;-45
2022/08/10 05:35:21;;;;;;;;;;;;;;;;;;2112921;28;19930;-43
2022/08/10 05:36:22;;;;;;;;;;;;;;;;;;2114684;28;19923;-44
2022/08/10 05:37:22;;;;;;;;;;;;;;;;;;2114729;28;20007;-44
2022/08/10 05:38:43;;;;;;;;;;;;;;;;;;2114820;28;19928;-44
2022/08/10 05:39:44;;;;;;;;;;;;;;;;;;2114814;28;19969;-44
2022/08/10 05:40:45;;;;;;;;;;;;;;;;;;2114791;28;19924;-44
2022/08/10 05:41:48;;;;;;;;;;;;;;;;;;2114904;28;20011;-44
2022/08/10 05:42:53;;;;;;;;;;;;;;;;;;2115068;28;20158;-44
2022/08/10 05:43:54;;;;;;;;;;;;;;;;;;2114835;28;19930;-43
2022/08/10 05:44:55;;;;;;;;;;;;;;;;;;2114860;28;19930;-48
2022/08/10 05:45:55;;;;;;;;;;;;;;;;;;2114974;28;19966;-45
2022/08/10 05:47:16;;;;;;;;;;;;;;;;;;2114619;28;20399;-45
2022/08/10 05:48:17;;;;;;;;;;;;;;;;;;2114967;28;19924;-45
2022/08/10 05:49:38;;;;;;;;;;;;;;;;;;2114827;28;19976;-47
2022/08/10 05:50:39;;;;;;;;;;;;;;;;;;2114747;28;19931;-46
2022/08/10 05:51:40;;;;;;;;;;;;;;;;;;2115010;28;19924;-45
2022/08/10 05:52:41;;;;;;;;;;;;;;;;;;2114873;28;20023;-45
2022/08/10 05:53:42;;;;;;;;;;;;;;;;;;2114673;28;20284;-46
2022/08/10 05:55:02;;;;;;;;;;;;;;;;;;2114643;28;19924;-45
2022/08/10 05:56:03;;;;;;;;;;;;;;;;;;2115196;28;19927;-44
2022/08/10 05:57:04;;;;;;;;;;;;;;;;;;2114752;28;20372;-44
2022/08/10 05:58:05;;;;;;;;;;;;;;;;;;2114906;28;19923;-45
2022/08/10 05:59:06;;;;;;;;;;;;;;;;;;2114731;28;20396;-45
2022/08/10 06:00:07;;;;;;;;;;;;;;;;;;2114848;28;19924;-45
2022/08/10 06:01:29;;;;;;;;;;;;;;;;;;2114701;28;20027;-45
2022/08/10 06:02:31;;;;;;;;;;;;;;;;;;2114682;28;19923;-47
2022/08/10 06:03:36;;;;;;;;;;;;;;;;;;2114682;28;19924;-46
2022/08/10 06:04:36;;;;;;;;;;;;;;;;;;2114758;28;19931;-48
2022/08/10 06:05:37;;;;;;;;;;;;;;;;;;2115001;28;20324;-45
2022/08/10 06:06:38;;;;;;;;;;;;;;;;;;2114585;28;20444;-47
2022/08/10 06:07:39;;;;;;;;;;;;;;;;;;2114733;28;19931;-46
2022/08/10 06:08:40;;;;;;;;;;;;;;;;;;2114832;28;19924;-43
2022/08/10 06:09:41;;;;;;;;;;;;;;;;;;2114849;28;20010;-47
2022/08/10 06:11:00;;;;;;;;;;;;;;;;;;2114132;28;19952;-46
2022/08/10 06:12:21;;;;;;;;;;;;;;;;;;2106128;28;19924;-44
2022/08/10 06:15:00;;;;;;;;;;;;;;;;;;2106229;28;20003;-44
2022/08/10 06:16:06;;;;;;;;;;;;;;;;;;2106178;28;20015;-44
2022/08/10 06:17:07;;;;;;;;;;;;;;;;;;2106302;28;19924;-46
2022/08/10 06:18:08;;;;;;;;;;;;;;;;;;2106405;28;19975;-44
2022/08/10 06:19:09;;;;;;;;;;;;;;;;;;2106336;28;19984;-45
2022/08/10 06:20:09;;;;;;;;;;;;;;;;;;2106155;28;19924;-45
2022/08/10 06:21:10;;;;;;;;;;;;;;;;;;2106118;28;19924;-44
2022/08/10 06:22:11;;;;;;;;;;;;;;;;;;2106254;28;20001;-44
2022/08/10 06:23:12;;;;;;;;;;;;;;;;;;2106248;28;19928;-46
2022/08/10 06:24:16;;;;;;;;;;;;;;;;;;2105991;28;20377;-44
2022/08/10 06:25:17;;;;;;;;;;;;;;;;;;2106290;28;20019;-44
2022/08/10 06:26:38;;;;;;;;;;;;;;;;;;2105913;28;19950;-44
2022/08/10 06:27:38;;;;;;;;;;;;;;;;;;2106257;28;20022;-43
2022/08/10 06:28:39;;;;;;;;;;;;;;;;;;2106147;28;19928;-44
2022/08/10 06:29:40;;;;;;;;;;;;;;;;;;2106227;28;20019;-44
2022/08/10 06:30:41;;;;;;;;;;;;;;;;;;2106128;28;19932;-44
2022/08/10 06:31:42;;;;;;;;;;;;;;;;;;2113551;28;19973;-44
2022/08/10 06:32:49;;;;;;;;;;;;;;;;;;2114448;28;19924;-45
2022/08/10 06:33:50;;;;;;;;;;;;;;;;;;2116056;28;20160;-46
2022/08/10 06:34:51;;;;;;;;;;;;;;;;;;2116481;28;20361;-44
2022/08/10 06:35:52;;;;;;;;;;;;;;;;;;2116175;28;20010;-45
2022/08/10 06:36:53;;;;;;;;;;;;;;;;;;2115982;28;19927;-43
2022/08/10 06:37:54;;;;;;;;;;;;;;;;;;2116394;28;19927;-45
2022/08/10 06:38:55;;;;;;;;;;;;;;;;;;2116103;28;19931;-45
2022/08/10 06:40:11;;;;;;;;;;;;;;;;;;2116256;28;19996;-45
2022/08/10 06:41:12;;;;;;;;;;;;;;;;;;2116066;28;19924;-44
2022/08/10 06:42:17;;;;;;;;;;;;;;;;;;2116256;28;20514;-44
2022/08/10 06:43:18;;;;;;;;;;;;;;;;;;2115957;28;19946;-47
2022/08/10 06:44:19;;;;;;;;;;;;;;;;;;2116048;28;19930;-45
2022/08/10 06:45:20;;;;;;;;;;;;;;;;;;2116261;28;19924;-44
2022/08/10 06:46:21;;;;;;;;;;;;;;;;;;2116032;28;19930;-43
2022/08/10 06:47:22;;;;;;;;;;;;;;;;;;2116108;28;20380;-45
2022/08/10 06:48:23;;;;;;;;;;;;;;;;;;2115991;28;19932;-43
2022/08/10 06:49:24;;;;;;;;;;;;;;;;;;2116093;28;20022;-45
2022/08/10 06:50:25;;;;;;;;;;;;;;;;;;2115888;28;19923;-46
2022/08/10 06:51:45;;;;;;;;;;;;;;;;;;2115715;28;20389;-45
2022/08/10 06:52:46;;;;;;;;;;;;;;;;;;2116019;28;19927;-47
2022/08/10 06:53:47;;;;;;;;;;;;;;;;;;2116188;28;19923;-45
2022/08/10 06:54:54;;;;;;;;;;;;;;;;;;2116390;28;19923;-45
2022/08/10 06:55:56;;;;;;;;;;;;;;;;;;2116149;28;19923;-44
2022/08/10 06:56:57;;;;;;;;;;;;;;;;;;2115718;28;19927;-45
2022/08/10 06:58:19;;;;;;;;;;;;;;;;;;2116293;28;19974;-45
2022/08/10 06:59:20;;;;;;;;;;;;;;;;;;2115961;28;19930;-46
2022/08/10 07:00:22;;;;;;;;;;;;;;;;;;2116028;28;19927;-44
2022/08/10 07:01:23;;;;;;;;;;;;;;;;;;2116151;28;20437;-45
2022/08/10 07:02:24;;;;;;;;;;;;;;;;;;2115789;28;20320;-44
2022/08/10 07:03:25;;;;;;;;;;;;;;;;;;2115923;28;19931;-46
2022/08/10 07:04:26;;;;;;;;;;;;;;;;;;2116187;28;20326;-46
2022/08/10 07:05:33;;;;;;;;;;;;;;;;;;2115806;28;19927;-49
2022/08/10 07:06:34;;;;;;;;;;;;;;;;;;2115875;28;19972;-46
2022/08/10 07:07:35;;;;;;;;;;;;;;;;;;2115973;28;20441;-46
2022/08/10 07:08:36;;;;;;;;;;;;;;;;;;2115819;28;19946;-47
2022/08/10 07:09:37;;;;;;;;;;;;;;;;;;2115748;28;19952;-48
2022/08/10 07:10:38;;;;;;;;;;;;;;;;;;2116150;28;19931;-44
2022/08/10 07:11:41;;;;;;;;;;;;;;;;;;2109475;28;20290;-45
2022/08/10 07:12:42;;;;;;;;;;;;;;;;;;2107421;28;19930;-46
2022/08/10 07:13:43;;;;;;;;;;;;;;;;;;2107339;28;20388;-46
2022/08/10 07:15:04;;;;;;;;;;;;;;;;;;2107358;28;20389;-49